Flood From: 18-02-2018 10:00 Until: 19-02-2018 06:00 warning for: Flood Level: Yellow info button

Although rather usual in this region, locally or potentially dangerous phenomena are expected. (such as local winds, summer thunderstorms, rising streams or high waves) Be aware and pay attention to the latest weather updates, especially if you carry out activities exposed to weather or close to a stream or shoreline. 


Meteo18 Weather Cam more information Meteo18 Weather Cam


Thunder radar more information blitzortung!


Rain radar more information rain snow radar


Visit our other weather sites:

Template documentation
and downloads

And another site



Weather Underground History page Text

Daily Summary for April 3, 2016 Units:  Metric    English   Both
« Previous Day
Next Day »
Daily Weekly Monthly Yearly Custom
  High: Low: Average:
Temperature: -17.8 °C -13.4 °C -10.8 °C
Dew Point: -17.8 °C -13.8 °C -11.9 °C
Humidity: Humidity % 57 % 89 %
Wind Speed: 0 km/h 0 km/h 1.3 km/h
Wind Gust: 0 km/h - -
Wind:- - SSW
Pressure: 0 hPa 33992.1 hPa -
Precipitation: 116.84 mm    
Historical Graphs
 
 
Tabular Data for April 3, 2016
Time Temperature Dew Point Pressure Wind Wind Speed Wind Gust Humidity Rainfall Rate (Hourly)
-17.8 °C -17.8 °C 0 hPa Calm     Humidity % 0 mm
00:02 -12.3 °C -12.6 °C 34198.6 hPa Calm   2.6 km/h 97 % 0 mm
00:07 -12.3 °C -12.6 °C 34198.6 hPa Calm   2.6 km/h 97 % 0 mm
00:12 -12.3 °C -12.6 °C 34198.6 hPa Calm   2.6 km/h 97 % 0 mm
00:17 -12.3 °C -12.6 °C 34198.6 hPa Calm   2.6 km/h 97 % 0 mm
00:22 -12.3 °C -12.6 °C 34198.6 hPa Calm   2.6 km/h 97 % 0 mm
00:32 -12.3 °C -12.6 °C 34198.6 hPa Calm     97 % 7.62 mm
00:37 -12.3 °C -12.6 °C 34198.6 hPa Calm     97 % 7.62 mm
00:42 -12.3 °C -12.6 °C 34198.6 hPa Calm     97 % 7.62 mm
00:47 -12.2 °C -12.4 °C 34198.6 hPa Calm   5.1 km/h 97 % 7.62 mm
00:52 -12.2 °C -12.4 °C 34188.4 hPa Calm   5.1 km/h 97 % 7.62 mm
00:57 -12.2 °C -12.4 °C 34198.6 hPa Calm   5.1 km/h 97 % 7.62 mm
01:02 -12.1 °C -12.4 °C 34198.6 hPa Calm   5.1 km/h 97 % 7.62 mm
01:07 -12.1 °C -12.3 °C 34198.6 hPa Calm   5.1 km/h 97 % 7.62 mm
01:12 -12.1 °C -12.3 °C 34198.6 hPa Calm   5.1 km/h 97 % 7.62 mm
01:17 -12.1 °C -12.3 °C 34198.6 hPa Calm   2.6 km/h 97 % 7.62 mm
01:22 -12.1 °C -12.3 °C 34198.6 hPa Calm   2.6 km/h 97 % 7.62 mm
01:27 -12.1 °C -12.3 °C 34198.6 hPa Calm   2.6 km/h 97 % 7.62 mm
01:32 -12.1 °C -12.3 °C 34198.6 hPa Calm   5.1 km/h 97 % 0 mm
01:37 -12.1 °C -12.3 °C 34198.6 hPa Calm   5.1 km/h 97 % 0 mm
01:42 -12 °C -12.3 °C 34198.6 hPa Calm   5.1 km/h 97 % 0 mm
01:47 -12 °C -12.3 °C 34198.6 hPa Calm   7.7 km/h 97 % 0 mm
01:52 -12 °C -12.3 °C 34198.6 hPa Calm   7.7 km/h 96 % 0 mm
02:02 -12 °C -12.3 °C 34198.6 hPa Calm   2.6 km/h 96 % 0 mm
02:07 -12 °C -12.3 °C 34198.6 hPa Calm   2.6 km/h 96 % 0 mm
02:12 -12 °C -12.3 °C 34198.6 hPa Calm   2.6 km/h 96 % 0 mm
02:17 -12 °C -12.3 °C 34198.6 hPa Calm   2.6 km/h 96 % 0 mm
02:22 -12.1 °C -12.4 °C 34198.6 hPa Calm   2.6 km/h 96 % 0 mm
02:27 -12.1 °C -12.4 °C 34198.6 hPa Calm     96 % 0 mm
02:32 -12.1 °C -12.4 °C 34198.6 hPa Calm     96 % 0 mm
02:37 -12.2 °C -12.5 °C 34198.6 hPa Calm     96 % 0 mm
02:42 -12.2 °C -12.5 °C 34198.6 hPa Calm     96 % 0 mm
02:47 -12.2 °C -12.5 °C 34198.6 hPa Calm     96 % 0 mm
02:52 -12.2 °C -12.5 °C 34188.4 hPa Calm     96 % 0 mm
02:57 -12.2 °C -12.5 °C 34198.6 hPa Calm     96 % 0 mm
03:02 -12.2 °C -12.5 °C 34198.6 hPa Calm     96 % 0 mm
03:07 -12.2 °C -12.6 °C 34198.6 hPa Calm     96 % 0 mm
03:12 -12.3 °C -12.6 °C 34188.4 hPa Calm     96 % 0 mm
03:17 -12.2 °C -12.6 °C 34188.4 hPa Calm     96 % 0 mm
03:22 -12.2 °C -12.6 °C 34188.4 hPa Calm     96 % 0 mm
03:32 -12.3 °C -12.6 °C 34188.4 hPa Calm     96 % 0 mm
03:37 -12.4 °C -12.7 °C 34178.3 hPa Calm     96 % 0 mm
03:42 -12.4 °C -12.8 °C 34188.4 hPa Calm     96 % 0 mm
03:52 -12.4 °C -12.7 °C 34188.4 hPa Calm   2.6 km/h 97 % 0 mm
03:57 -12.6 °C -12.9 °C 34178.3 hPa Calm   2.6 km/h 96 % 0 mm
04:02 -12.7 °C -13 °C 34178.3 hPa Calm   2.6 km/h 96 % 0 mm
04:12 -12.7 °C -13 °C 34178.3 hPa Calm     97 % 0 mm
04:17 -12.8 °C -13.1 °C 34178.3 hPa Calm     97 % 0 mm
04:22 -12.8 °C -13.1 °C 34178.3 hPa Calm     97 % 0 mm
04:27 -12.9 °C -13.2 °C 34178.3 hPa Calm     96 % 0 mm
04:32 -12.9 °C -13.3 °C 34178.3 hPa Calm     96 % 0 mm
04:37 -13 °C -13.2 °C 34178.3 hPa Calm     97 % 0 mm
04:42 -12.9 °C -13.2 °C 34178.3 hPa Calm     97 % 0 mm
04:47 -12.9 °C -13.2 °C 34178.3 hPa Calm     97 % 0 mm
04:52 -12.9 °C -13.2 °C 34178.3 hPa Calm   2.6 km/h 97 % 0 mm
04:57 -12.9 °C -13.2 °C 34178.3 hPa Calm   2.6 km/h 97 % 0 mm
05:02 -12.8 °C -13.1 °C 34178.3 hPa Calm     97 % 0 mm
05:07 -12.8 °C -13.1 °C 34178.3 hPa Calm     97 % 0 mm
05:12 -12.8 °C -13.1 °C 34178.3 hPa Calm     97 % 0 mm
05:17 -12.8 °C -13.1 °C 34178.3 hPa Calm     97 % 0 mm
05:22 -12.7 °C -13 °C 34178.3 hPa Calm     97 % 0 mm
05:27 -12.7 °C -13 °C 34178.3 hPa Calm     97 % 0 mm
05:32 -12.8 °C -13.1 °C 34178.3 hPa Calm     97 % 0 mm
05:37 -12.8 °C -13.1 °C 34178.3 hPa Calm     97 % 0 mm
05:42 -12.9 °C -13.2 °C 34178.3 hPa Calm     97 % 0 mm
05:47 -12.8 °C -13.1 °C 34178.3 hPa Calm     97 % 0 mm
05:52 -12.8 °C -13.1 °C 34178.3 hPa Calm     97 % 0 mm
05:57 -12.9 °C -13.2 °C 34178.3 hPa Calm     97 % 0 mm
06:02 -12.9 °C -13.2 °C 34178.3 hPa Calm     97 % 0 mm
06:07 -12.8 °C -13.1 °C 34178.3 hPa Calm     97 % 0 mm
06:12 -12.8 °C -12.9 °C 34178.3 hPa Calm     98 % 0 mm
06:17 -12.7 °C -12.9 °C 34178.3 hPa Calm     98 % 0 mm
06:22 -12.7 °C -13 °C 34178.3 hPa Calm     97 % 0 mm
06:27 -12.7 °C -13 °C 34178.3 hPa Calm     97 % 0 mm
06:32 -12.7 °C -13 °C 34178.3 hPa Calm     97 % 0 mm
06:42 -12.7 °C -13 °C 34178.3 hPa Calm     97 % 0 mm
06:47 -12.8 °C -13.1 °C 34178.3 hPa Calm     97 % 0 mm
06:57 -12.9 °C -13.2 °C 34178.3 hPa Calm     97 % 0 mm
07:02 -12.9 °C -13.2 °C 34178.3 hPa Calm     97 % 0 mm
07:07 -13 °C -13.2 °C 34178.3 hPa Calm     97 % 0 mm
07:12 -13.1 °C -13.3 °C 34178.3 hPa Calm     97 % 0 mm
07:17 -13.1 °C -13.3 °C 34178.3 hPa Calm     97 % 0 mm
07:22 -13.2 °C -13.4 °C 34178.3 hPa Calm     97 % 0 mm
07:27 -13.2 °C -13.4 °C 34178.3 hPa Calm     97 % 0 mm
07:32 -13.2 °C -13.4 °C 34178.3 hPa Calm     97 % 0 mm
07:37 -13.2 °C -13.4 °C 34178.3 hPa Calm     97 % 0 mm
07:42 -13.2 °C -13.4 °C 34178.3 hPa Calm     98 % 0 mm
07:47 -13.2 °C -13.4 °C 34178.3 hPa Calm     98 % 0 mm
07:52 -13.3 °C -13.5 °C 34178.3 hPa Calm     97 % 0 mm
07:57 -13.3 °C -13.6 °C 34178.3 hPa Calm     97 % 0 mm
08:02 -13.4 °C -13.6 °C 34178.3 hPa Calm     97 % 0 mm
08:07 -13.3 °C -13.5 °C 34178.3 hPa Calm     98 % 0 mm
08:12 -13.3 °C -13.5 °C 34178.3 hPa Calm     98 % 0 mm
08:17 -13.4 °C -13.6 °C 34178.3 hPa Calm     98 % 0 mm
08:22 -13.3 °C -13.5 °C 34178.3 hPa Calm     98 % 0 mm
08:32 -13.2 °C -13.4 °C 34178.3 hPa Calm     98 % 0 mm
08:37 -13.2 °C -13.3 °C 34178.3 hPa Calm     98 % 0 mm
08:42 -13.1 °C -13.2 °C 34178.3 hPa Calm     98 % 0 mm
08:47 -12.9 °C -13.1 °C 34178.3 hPa Calm     98 % 0 mm
08:52 -12.7 °C -12.9 °C 34178.3 hPa Calm     98 % 0 mm
08:57 -12.6 °C -12.8 °C 34178.3 hPa Calm     98 % 0 mm
09:02 -12.6 °C -12.7 °C 34178.3 hPa Calm     98 % 0 mm
09:07 -12.4 °C -12.6 °C 34178.3 hPa Calm     98 % 0 mm
09:12 -12.3 °C -12.4 °C 34178.3 hPa Calm     98 % 0 mm
09:17 -12.2 °C -12.3 °C 34178.3 hPa Calm     98 % 0 mm
09:22 -12.1 °C -12.2 °C 34178.3 hPa Calm     98 % 0 mm
09:32 -11.8 °C -12 °C 34178.3 hPa Calm     98 % 0 mm
09:37 -11.8 °C -12 °C 34188.4 hPa Calm     98 % 0 mm
09:42 -11.8 °C -12 °C 34188.4 hPa Calm     98 % 0 mm
09:47 -11.7 °C -11.9 °C 34178.3 hPa Calm     98 % 0 mm
09:52 -11.7 °C -11.9 °C 34178.3 hPa Calm     98 % 0 mm
09:57 -11.7 °C -11.9 °C 34178.3 hPa Calm     98 % 0 mm
10:02 -11.4 °C -11.6 °C 34188.4 hPa Calm     98 % 0 mm
10:07 -11.1 °C -11.3 °C 34178.3 hPa Calm     98 % 0 mm
10:12 -10.9 °C -11.1 °C 34178.3 hPa Calm     98 % 0 mm
10:17 -10.7 °C -11 °C 34178.3 hPa Calm   2.6 km/h 97 % 0 mm
10:22 -10.5 °C -11 °C 34178.3 hPa Calm   7.7 km/h 94 % 0 mm
10:27 -10.2 °C -10.9 °C 34178.3 hPa East 2.6 km/h 7.7 km/h 92 % 0 mm
10:32 -9.9 °C -10.8 °C 34178.3 hPa Calm   7.7 km/h 90 % 0 mm
10:37 -9.6 °C -10.8 °C 34178.3 hPa NW 5.1 km/h 5.1 km/h 87 % 0 mm
10:42 -9.5 °C -10.9 °C 34178.3 hPa Calm   10.3 km/h 85 % 0 mm
10:47 -9.3 °C -10.7 °C 34178.3 hPa NNW 5.1 km/h 12.9 km/h 85 % 0 mm
10:52 -9.1 °C -10.8 °C 34178.3 hPa WSW 2.6 km/h 12.9 km/h 82 % 0 mm
10:57 -8.9 °C -10.4 °C 34178.3 hPa WSW 2.6 km/h 12.9 km/h 84 % 0 mm
11:02 -8.8 °C -10.7 °C 34178.3 hPa Calm   12.9 km/h 80 % 0 mm
11:12 -8.4 °C -10 °C 34164.7 hPa Calm   10.3 km/h 83 % 0 mm
11:17 -8.2 °C -10.2 °C 34164.7 hPa Calm   10.3 km/h 79 % 0 mm
11:22 -7.9 °C -10.2 °C 34164.7 hPa Calm   10.3 km/h 77 % 0 mm
11:27 -7.8 °C -10.1 °C 34164.7 hPa Calm   10.3 km/h 77 % 0 mm
11:32 -7.7 °C -10 °C 34164.7 hPa West 5.1 km/h 10.3 km/h 77 % 0 mm
11:37 -7.8 °C -10.2 °C 34164.7 hPa WSW 7.7 km/h 10.3 km/h 76 % 0 mm
11:42 -7.7 °C -10 °C 34154.6 hPa Calm   15.6 km/h 77 % 0 mm
11:47 -7.6 °C -10.1 °C 34154.6 hPa SW 2.6 km/h 15.6 km/h 75 % 0 mm
11:52 -7.5 °C -10.1 °C 34154.6 hPa NW 2.6 km/h 12.9 km/h 74 % 0 mm
11:57 -7.3 °C -9.8 °C 34154.6 hPa SW 5.1 km/h 10.3 km/h 75 % 0 mm
12:02 -7.2 °C -9.8 °C 34154.6 hPa NW 5.1 km/h 7.7 km/h 74 % 0 mm
12:07 -7.2 °C -10.2 °C 34154.6 hPa NE 5.1 km/h 7.7 km/h 71 % 0 mm
12:12 -7.3 °C -9.9 °C 34154.6 hPa West 2.6 km/h 15.6 km/h 74 % 0 mm
12:17 -7.2 °C -10.1 °C 34144.4 hPa West 12.9 km/h 15.6 km/h 72 % 0 mm
12:22 -7.1 °C -9.6 °C 34144.4 hPa ESE 2.6 km/h 20.8 km/h 75 % 0 mm
12:27 -6.9 °C -9.9 °C 34144.4 hPa WSW 5.1 km/h 20.8 km/h 71 % 0 mm
12:32 -6.8 °C -9.8 °C 34144.4 hPa NW 2.6 km/h 20.8 km/h 71 % 0 mm
12:37 -7 °C -10 °C 34144.4 hPa NW 15.6 km/h 15.6 km/h 71 % 0 mm
12:47 -7.1 °C -9.9 °C 34130.9 hPa Calm   23.3 km/h 73 % 0 mm
12:52 -6.8 °C -9.3 °C 34130.9 hPa NW 7.7 km/h 23.3 km/h 75 % 0 mm
12:57 -6.8 °C -9.9 °C 34130.9 hPa Calm   15.6 km/h 70 % 0 mm
13:02 -6.7 °C -9.6 °C 34130.9 hPa WSW 10.3 km/h 15.6 km/h 72 % 0 mm
13:07 -6.6 °C -9.3 °C 34130.9 hPa West 2.6 km/h 15.6 km/h 73 % 0 mm
13:12 -6.3 °C -9.8 °C 34120.7 hPa WNW 2.6 km/h 20.8 km/h 67 % 0 mm
13:17 -6.3 °C -9.7 °C 34120.7 hPa WNW 12.9 km/h 20.8 km/h 68 % 0 mm
13:22 -6.3 °C -9.9 °C 34120.7 hPa SSE 5.1 km/h 18.2 km/h 66 % 0 mm
13:27 -6.2 °C -9.3 °C 34120.7 hPa WSW 12.9 km/h 20.8 km/h 70 % 0 mm
13:32 -6.1 °C -9.7 °C 34120.7 hPa SW 5.1 km/h 20.8 km/h 66 % 0 mm
13:37 -6 °C -10.1 °C 34107.2 hPa WNW 5.1 km/h 18.2 km/h 63 % 0 mm
13:42 -6.6 °C -10.1 °C 34107.2 hPa WNW 2.6 km/h 18.2 km/h 67 % 0 mm
13:47 -6.6 °C -9.9 °C 34107.2 hPa WNW 5.1 km/h 18.2 km/h 68 % 0 mm
13:52 -6.5 °C -9.9 °C 34107.2 hPa WSW 5.1 km/h 18.2 km/h 68 % 0 mm
13:57 -6.2 °C -10.2 °C 34107.2 hPa WSW 10.3 km/h 12.9 km/h 64 % 0 mm
14:02 -6.1 °C -10.4 °C 34097 hPa West 12.9 km/h 20.8 km/h 61 % 0 mm
14:07 -6.2 °C -10.4 °C 34107.2 hPa West 5.1 km/h 20.8 km/h 62 % 0 mm
14:12 -6.3 °C -10.3 °C 34097 hPa SW 5.1 km/h 20.8 km/h 63 % 0 mm
14:17 -6.6 °C -10.7 °C 34097 hPa WSW 2.6 km/h 20.8 km/h 62 % 0 mm
14:22 -6.6 °C -11.4 °C 34097 hPa WSW 7.7 km/h 15.6 km/h 57 % 0 mm
14:27 -6.5 °C -10.8 °C 34086.9 hPa WNW 2.6 km/h 15.6 km/h 61 % 0 mm
14:32 -6.6 °C -10.6 °C 34086.9 hPa West 2.6 km/h 12.9 km/h 63 % 0 mm
14:37 -6.3 °C -10.4 °C 34086.9 hPa SW 10.3 km/h 12.9 km/h 62 % 0 mm
14:42 -6.4 °C -10.9 °C 34086.9 hPa West 2.6 km/h 12.9 km/h 60 % 0 mm
14:47 -6.6 °C -10.3 °C 34086.9 hPa Calm   12.9 km/h 65 % 0 mm
14:52 -6.7 °C -10.3 °C 34086.9 hPa Calm   12.9 km/h 66 % 0 mm
14:57 -6.8 °C -10.9 °C 34073.3 hPa West 5.1 km/h 12.9 km/h 62 % 0 mm
15:02 -7 °C -10.6 °C 34073.3 hPa SW 2.6 km/h 10.3 km/h 66 % 0 mm
15:07 -7.2 °C -10.7 °C 34073.3 hPa West 2.6 km/h 7.7 km/h 67 % 0 mm
15:12 -7.2 °C -10.3 °C 34073.3 hPa Calm   7.7 km/h 70 % 0 mm
15:17 -7.1 °C -10.6 °C 34073.3 hPa Calm   5.1 km/h 67 % 0 mm
15:22 -7.1 °C -10.3 °C 34073.3 hPa West 2.6 km/h 5.1 km/h 69 % 0 mm
15:27 -7.2 °C -10.2 °C 34073.3 hPa Calm   2.6 km/h 71 % 0 mm
15:32 -7.3 °C -10.1 °C 34073.3 hPa NW 7.7 km/h 7.7 km/h 73 % 0 mm
15:37 -7.9 °C -10.9 °C 34073.3 hPa NE 5.1 km/h 7.7 km/h 70 % 0 mm
15:42 -8.6 °C -11.1 °C 34073.3 hPa NNW 7.7 km/h 36.2 km/h 75 % 0 mm
15:47 -9.1 °C -11.4 °C 34073.3 hPa Calm   36.2 km/h 76 % 0 mm
15:52 -9.2 °C -11 °C 34063.2 hPa Calm   20.8 km/h 81 % 0 mm
15:57 -9.4 °C -11.3 °C 34073.3 hPa Calm   15.6 km/h 80 % 7.62 mm
16:02 -9.6 °C -11.2 °C 34063.2 hPa Calm   12.9 km/h 82 % 7.62 mm
16:07 -9.7 °C -11.2 °C 34049.6 hPa Calm   10.3 km/h 84 % 12.7 mm
16:12 -9.6 °C -10.9 °C 34063.2 hPa WSW 5.1 km/h 10.3 km/h 86 % 12.7 mm
16:17 -9.8 °C -11.2 °C 34063.2 hPa Calm   7.7 km/h 85 % 12.7 mm
16:22 -9.8 °C -11.2 °C 34063.2 hPa Calm   7.7 km/h 85 % 12.7 mm
16:32 -10.1 °C -11.2 °C 34063.2 hPa Calm   2.6 km/h 87 % 33.02 mm
16:37 -10.3 °C -11.3 °C 34049.6 hPa Calm   2.6 km/h 89 % 76.2 mm
16:42 -10.4 °C -11.3 °C 34049.6 hPa Calm   7.7 km/h 90 % 96.52 mm
16:47 -10.4 °C -11.3 °C 34049.6 hPa Calm   7.7 km/h 90 % 96.52 mm
16:52 -10.3 °C -11.2 °C 34063.2 hPa Calm   7.7 km/h 90 % 91.44 mm
16:57 -10.3 °C -11.2 °C 34063.2 hPa SSW 2.6 km/h 7.7 km/h 90 % 91.44 mm
17:12 -10.4 °C -11.1 °C 34039.5 hPa Calm   7.7 km/h 92 % 91.44 mm
17:22 -10 °C -10.6 °C 34049.6 hPa West 2.6 km/h 5.1 km/h 93 % 96.52 mm
17:27 -9.9 °C -10.7 °C 34049.6 hPa North 2.6 km/h 5.1 km/h 91 % 91.44 mm
17:32 -9.8 °C -10.6 °C 34039.5 hPa Calm   5.1 km/h 91 % 63.5 mm
17:37 -9.8 °C -10.6 °C 34039.5 hPa Calm   5.1 km/h 91 % 20.32 mm
17:42 -9.7 °C -10.6 °C 34039.5 hPa Calm   5.1 km/h 91 % 12.7 mm
17:47 -9.7 °C -10.6 °C 34029.3 hPa Calm   2.6 km/h 91 % 12.7 mm
17:52 -9.8 °C -10.6 °C 34029.3 hPa Calm   5.1 km/h 91 % 12.7 mm
17:57 -9.8 °C -10.6 °C 34029.3 hPa Calm   7.7 km/h 91 % 12.7 mm
18:02 -9.9 °C -10.7 °C 34029.3 hPa NE 7.7 km/h 10.3 km/h 91 % 12.7 mm
18:07 -9.9 °C -10.7 °C 34029.3 hPa Calm   10.3 km/h 92 % 7.62 mm
18:12 -9.9 °C -10.7 °C 34029.3 hPa Calm   7.7 km/h 92 % 7.62 mm
18:17 -9.9 °C -10.7 °C 34029.3 hPa Calm   7.7 km/h 92 % 0 mm
18:22 -9.9 °C -10.6 °C 34029.3 hPa Calm   2.6 km/h 92 % 0 mm
18:27 -9.9 °C -10.6 °C 34015.8 hPa Calm   2.6 km/h 92 % 0 mm
18:32 -10 °C -10.8 °C 34015.8 hPa Calm   2.6 km/h 91 % 0 mm
18:42 -10.1 °C -10.8 °C 34015.8 hPa Calm   7.7 km/h 92 % 0 mm
18:47 -10.2 °C -10.8 °C 34015.8 hPa Calm   7.7 km/h 93 % 0 mm
18:52 -10.2 °C -10.9 °C 34015.8 hPa NNE 5.1 km/h 10.3 km/h 92 % 0 mm
18:57 -10.3 °C -11.1 °C 34015.8 hPa Calm   10.3 km/h 92 % 0 mm
19:02 -10.4 °C -11.1 °C 34015.8 hPa NNE 2.6 km/h 10.3 km/h 92 % 0 mm
19:07 -10.4 °C -11.1 °C 34005.6 hPa North 5.1 km/h 7.7 km/h 93 % 0 mm
19:12 -10.6 °C -11.2 °C 33992.1 hPa NNE 5.1 km/h 7.7 km/h 93 % 0 mm
19:22 -10.7 °C -11.3 °C 33992.1 hPa Calm   7.7 km/h 93 % 0 mm
19:27 -10.7 °C -11.3 °C 34029.3 hPa SW 10.3 km/h 10.3 km/h 93 % 0 mm
19:32 -10.6 °C -11.2 °C 34029.3 hPa Calm   18.2 km/h 93 % 0 mm
19:37 -10.6 °C -11.3 °C 34029.3 hPa Calm   18.2 km/h 92 % 0 mm
19:42 -10.6 °C -11.3 °C 34029.3 hPa Calm   18.2 km/h 91 % 0 mm
19:47 -10.4 °C -11.3 °C 34029.3 hPa NE 2.6 km/h 7.7 km/h 90 % 0 mm
19:52 -10.4 °C -11.4 °C 34015.8 hPa Calm   12.9 km/h 89 % 0 mm
19:57 -10.3 °C -11.5 °C 34029.3 hPa ENE 7.7 km/h 12.9 km/h 87 % 0 mm
20:02 -10.3 °C -11.7 °C 34015.8 hPa NE 7.7 km/h 10.3 km/h 85 % 0 mm
20:07 -10.3 °C -11.7 °C 34029.3 hPa NE 2.6 km/h 18.2 km/h 85 % 0 mm
20:12 -10.4 °C -11.7 °C 34029.3 hPa NE 7.7 km/h 18.2 km/h 86 % 0 mm
20:17 -10.5 °C -11.7 °C 34029.3 hPa Calm   15.6 km/h 87 % 0 mm
20:22 -10.7 °C -11.7 °C 34029.3 hPa NE 5.1 km/h 10.3 km/h 88 % 0 mm
20:27 -10.8 °C -11.8 °C 34029.3 hPa Calm   7.7 km/h 89 % 0 mm
20:32 -10.9 °C -11.9 °C 34029.3 hPa Calm   7.7 km/h 89 % 0 mm
20:42 -11.1 °C -12.1 °C 34029.3 hPa NE 2.6 km/h 7.7 km/h 89 % 0 mm
20:47 -11.1 °C -11.9 °C 34039.5 hPa Calm   7.7 km/h 90 % 0 mm
20:52 -11.1 °C -12 °C 34029.3 hPa Calm   5.1 km/h 90 % 0 mm
20:57 -11.2 °C -12.1 °C 34039.5 hPa Calm   5.1 km/h 90 % 0 mm
21:02 -11.4 °C -12.3 °C 34039.5 hPa Calm   2.6 km/h 90 % 0 mm
21:07 -11.6 °C -12.4 °C 34039.5 hPa Calm     91 % 0 mm
21:12 -11.8 °C -12.4 °C 34039.5 hPa NE 2.6 km/h 2.6 km/h 92 % 0 mm
21:17 -11.8 °C -12.6 °C 34039.5 hPa Calm   2.6 km/h 91 % 0 mm
21:22 -11.9 °C -12.7 °C 34049.6 hPa Calm   7.7 km/h 91 % 0 mm
21:27 -11.9 °C -12.6 °C 34039.5 hPa NE 2.6 km/h 7.7 km/h 92 % 0 mm
21:32 -11.9 °C -12.7 °C 34039.5 hPa Calm   5.1 km/h 91 % 0 mm
21:37 -11.9 °C -12.7 °C 34049.6 hPa Calm   7.7 km/h 91 % 0 mm
21:42 -12 °C -12.8 °C 34039.5 hPa Calm   7.7 km/h 91 % 0 mm
21:47 -12.1 °C -12.9 °C 34039.5 hPa Calm   5.1 km/h 91 % 0 mm
21:52 -12.3 °C -13.1 °C 34049.6 hPa Calm   2.6 km/h 91 % 0 mm
21:57 -12.4 °C -13.1 °C 34049.6 hPa Calm     92 % 0 mm
22:02 -12.4 °C -13.1 °C 34049.6 hPa Calm     93 % 0 mm
22:07 -12.4 °C -13.1 °C 34049.6 hPa Calm   2.6 km/h 93 % 0 mm
22:12 -12.5 °C -13.1 °C 34049.6 hPa Calm   2.6 km/h 93 % 0 mm
22:17 -12.6 °C -13.1 °C 34049.6 hPa Calm   2.6 km/h 94 % 0 mm
22:22 -12.6 °C -13.1 °C 34049.6 hPa Calm   2.6 km/h 94 % 0 mm
22:27 -12.6 °C -13.1 °C 34049.6 hPa Calm     94 % 0 mm
22:32 -12.7 °C -13.2 °C 34049.6 hPa Calm     94 % 0 mm
22:37 -12.8 °C -13.3 °C 34039.5 hPa Calm     94 % 0 mm
22:42 -12.9 °C -13.4 °C 34049.6 hPa Calm     94 % 0 mm
22:47 -12.9 °C -13.3 °C 34049.6 hPa Calm     95 % 0 mm
22:52 -12.9 °C -13.4 °C 34039.5 hPa Calm     95 % 0 mm
22:57 -13 °C -13.4 °C 34039.5 hPa Calm     95 % 0 mm
23:02 -13.1 °C -13.5 °C 34039.5 hPa Calm     95 % 0 mm
23:07 -13 °C -13.3 °C 34039.5 hPa SW 2.6 km/h 2.6 km/h 96 % 0 mm
23:12 -13 °C -13.4 °C 34039.5 hPa Calm   2.6 km/h 95 % 0 mm
23:17 -13.1 °C -13.5 °C 34039.5 hPa Calm   2.6 km/h 95 % 0 mm
23:22 -13.1 °C -13.6 °C 34049.6 hPa Calm   2.6 km/h 95 % 0 mm
23:27 -13.2 °C -13.7 °C 34049.6 hPa Calm   2.6 km/h 95 % 0 mm
23:32 -13.3 °C -13.7 °C 34049.6 hPa Calm     95 % 0 mm
23:37 -13.3 °C -13.7 °C 34049.6 hPa Calm     95 % 0 mm
23:42 -13.3 °C -13.8 °C 34063.2 hPa Calm     95 % 0 mm
23:47 -13.4 °C -13.8 °C 34063.2 hPa Calm     95 % 0 mm
23:52 -13.3 °C -13.7 °C 34073.3 hPa Calm   2.6 km/h 96 % 0 mm
23:57 -13.2 °C -13.4 °C 34086.9 hPa SSW 5.1 km/h 5.1 km/h 97 % 0 mm
Meteo18
Compliments of Weather Underground - 4 mb

Script developed by  Jim McMurry - jmcmurry@mwt.net Adapted for the template by  Wim van der Kuil - Leuven-Template.eu

You find our weather info also at:

European Weather Network

Weather Underground

Equipment we use:

Weather-station
Davis Vue

Weather-program
Meteobridge

Weather-server
Raspberry PI 2 B+

Provider
1 and 1

Davis Vue

Meteobridge

Raspberry PI 2 B+

1 and 1